< < Back
Terminal Aerodrome Forecast


Current Version              Previous Versions:   1  2  3  4  5  6  7  8  9  

Terminal Aerodrome Forecast

030
FTUS42 KCAE 262300
TAFCAE
TAF
KCAE 262327Z 2700/2724 04009KT P6SM SCT015 OVC035
      TEMPO 2700/2704 BKN015
     FM271200 33005KT P6SM SCT050=

Latest METAR

132
SAUS80 KWBC 270100 RRC
MTRCAE
METAR KCAE 270056Z 04005KT 10SM FEW018 SCT150 16/11 A2973 RMK AO2 SLP064
T01560106


USA.gov is the U.S. government's official web portal to all federal, state and local government web resources and services.